sensor_id;sensor_type;location;lat;lon;timestamp;temperature;humidity
72126;SHT31;59999;51.676;22.650;2022-08-19T00:01:26;19.75;90.63
72126;SHT31;59999;51.676;22.650;2022-08-19T00:04:03;19.69;91.00
72126;SHT31;59999;51.676;22.650;2022-08-19T00:06:30;19.65;91.19
72126;SHT31;59999;51.676;22.650;2022-08-19T00:08:57;19.62;91.78
72126;SHT31;59999;51.676;22.650;2022-08-19T00:11:25;19.59;92.06
72126;SHT31;59999;51.676;22.650;2022-08-19T00:13:55;19.64;92.35
72126;SHT31;59999;51.676;22.650;2022-08-19T00:16:23;19.64;92.18
72126;SHT31;59999;51.676;22.650;2022-08-19T00:18:49;19.59;92.00
72126;SHT31;59999;51.676;22.650;2022-08-19T00:21:15;19.61;92.15
72126;SHT31;59999;51.676;22.650;2022-08-19T00:23:42;19.61;92.26
72126;SHT31;59999;51.676;22.650;2022-08-19T00:26:10;19.61;92.29
72126;SHT31;59999;51.676;22.650;2022-08-19T00:28:36;19.59;92.25
72126;SHT31;59999;51.676;22.650;2022-08-19T00:31:04;19.57;92.10
72126;SHT31;59999;51.676;22.650;2022-08-19T00:33:31;19.51;91.98
72126;SHT31;59999;51.676;22.650;2022-08-19T00:36:07;19.51;91.94
72126;SHT31;59999;51.676;22.650;2022-08-19T00:38:34;19.46;91.95
72126;SHT31;59999;51.676;22.650;2022-08-19T00:41:01;19.41;92.04
72126;SHT31;59999;51.676;22.650;2022-08-19T00:43:28;19.38;92.09
72126;SHT31;59999;51.676;22.650;2022-08-19T00:45:54;19.32;92.16
72126;SHT31;59999;51.676;22.650;2022-08-19T00:48:21;19.30;92.30
72126;SHT31;59999;51.676;22.650;2022-08-19T00:50:49;19.26;92.46
72126;SHT31;59999;51.676;22.650;2022-08-19T00:53:20;19.23;92.48
72126;SHT31;59999;51.676;22.650;2022-08-19T00:55:50;19.21;92.41
72126;SHT31;59999;51.676;22.650;2022-08-19T00:58:22;19.16;92.32
72126;SHT31;59999;51.676;22.650;2022-08-19T01:00:50;19.10;92.55
72126;SHT31;59999;51.676;22.650;2022-08-19T01:03:18;19.10;92.88
72126;SHT31;59999;51.676;22.650;2022-08-19T01:05:45;19.10;93.14
72126;SHT31;59999;51.676;22.650;2022-08-19T01:08:14;19.09;93.23
72126;SHT31;59999;51.676;22.650;2022-08-19T01:10:59;19.07;93.46
72126;SHT31;59999;51.676;22.650;2022-08-19T01:13:29;19.10;93.28
72126;SHT31;59999;51.676;22.650;2022-08-19T01:16:03;19.07;93.26
72126;SHT31;59999;51.676;22.650;2022-08-19T01:18:30;19.06;93.25
72126;SHT31;59999;51.676;22.650;2022-08-19T01:21:02;19.04;93.29
72126;SHT31;59999;51.676;22.650;2022-08-19T01:23:29;19.03;93.35
72126;SHT31;59999;51.676;22.650;2022-08-19T01:26:15;18.96;93.29
72126;SHT31;59999;51.676;22.650;2022-08-19T01:28:43;18.92;93.09
72126;SHT31;59999;51.676;22.650;2022-08-19T01:31:15;18.88;92.74
72126;SHT31;59999;51.676;22.650;2022-08-19T01:33:41;18.77;92.83
72126;SHT31;59999;51.676;22.650;2022-08-19T01:36:11;18.76;93.16
72126;SHT31;59999;51.676;22.650;2022-08-19T01:38:41;18.66;93.29
72126;SHT31;59999;51.676;22.650;2022-08-19T01:41:10;18.59;93.60
72126;SHT31;59999;51.676;22.650;2022-08-19T01:43:36;18.56;93.84
72126;SHT31;59999;51.676;22.650;2022-08-19T01:46:03;18.51;94.24
72126;SHT31;59999;51.676;22.650;2022-08-19T01:48:38;18.47;94.38
72126;SHT31;59999;51.676;22.650;2022-08-19T01:51:05;18.45;94.61
72126;SHT31;59999;51.676;22.650;2022-08-19T01:53:31;18.45;94.70
72126;SHT31;59999;51.676;22.650;2022-08-19T01:55:57;18.47;94.65
72126;SHT31;59999;51.676;22.650;2022-08-19T01:58:29;18.45;94.63
72126;SHT31;59999;51.676;22.650;2022-08-19T02:00:56;18.45;94.69
72126;SHT31;59999;51.676;22.650;2022-08-19T02:03:23;18.45;94.71
72126;SHT31;59999;51.676;22.650;2022-08-19T02:05:55;18.41;94.91
72126;SHT31;59999;51.676;22.650;2022-08-19T02:08:21;18.40;95.02
72126;SHT31;59999;51.676;22.650;2022-08-19T02:10:47;18.41;95.25
72126;SHT31;59999;51.676;22.650;2022-08-19T02:13:16;18.41;95.30
72126;SHT31;59999;51.676;22.650;2022-08-19T02:15:42;18.38;95.28
72126;SHT31;59999;51.676;22.650;2022-08-19T02:18:08;18.38;95.31
72126;SHT31;59999;51.676;22.650;2022-08-19T02:20:35;18.41;95.37
72126;SHT31;59999;51.676;22.650;2022-08-19T02:23:02;18.40;95.48
72126;SHT31;59999;51.676;22.650;2022-08-19T02:25:28;18.38;95.56
72126;SHT31;59999;51.676;22.650;2022-08-19T02:27:54;18.35;95.64
72126;SHT31;59999;51.676;22.650;2022-08-19T02:30:20;18.34;95.68
72126;SHT31;59999;51.676;22.650;2022-08-19T02:32:46;18.32;95.75
72126;SHT31;59999;51.676;22.650;2022-08-19T02:35:13;18.30;95.70
72126;SHT31;59999;51.676;22.650;2022-08-19T02:37:41;18.28;95.96
72126;SHT31;59999;51.676;22.650;2022-08-19T02:40:27;18.24;96.17
72126;SHT31;59999;51.676;22.650;2022-08-19T02:42:54;18.25;96.37
72126;SHT31;59999;51.676;22.650;2022-08-19T02:45:19;18.27;96.57
72126;SHT31;59999;51.676;22.650;2022-08-19T02:47:46;18.30;96.46
72126;SHT31;59999;51.676;22.650;2022-08-19T02:50:12;18.28;96.41
72126;SHT31;59999;51.676;22.650;2022-08-19T02:52:39;18.27;96.40
72126;SHT31;59999;51.676;22.650;2022-08-19T02:55:05;18.32;96.57
72126;SHT31;59999;51.676;22.650;2022-08-19T02:57:32;18.37;96.74
72126;SHT31;59999;51.676;22.650;2022-08-19T02:59:58;18.40;96.70
72126;SHT31;59999;51.676;22.650;2022-08-19T03:02:25;18.40;96.71
72126;SHT31;59999;51.676;22.650;2022-08-19T03:04:50;18.41;96.94
72126;SHT31;59999;51.676;22.650;2022-08-19T03:07:17;18.45;97.06
72126;SHT31;59999;51.676;22.650;2022-08-19T03:09:44;18.49;97.06
72126;SHT31;59999;51.676;22.650;2022-08-19T03:12:10;18.51;97.00
72126;SHT31;59999;51.676;22.650;2022-08-19T03:14:37;18.49;96.90
72126;SHT31;59999;51.676;22.650;2022-08-19T03:17:04;18.49;96.88
72126;SHT31;59999;51.676;22.650;2022-08-19T03:19:30;18.47;96.85
72126;SHT31;59999;51.676;22.650;2022-08-19T03:21:57;18.45;96.89
72126;SHT31;59999;51.676;22.650;2022-08-19T03:24:24;18.47;96.79
72126;SHT31;59999;51.676;22.650;2022-08-19T03:26:52;18.41;96.77
72126;SHT31;59999;51.676;22.650;2022-08-19T03:29:20;18.41;96.74
72126;SHT31;59999;51.676;22.650;2022-08-19T03:31:47;18.40;96.77
72126;SHT31;59999;51.676;22.650;2022-08-19T03:34:15;18.40;96.78
72126;SHT31;59999;51.676;22.650;2022-08-19T03:36:43;18.37;96.80
72126;SHT31;59999;51.676;22.650;2022-08-19T03:39:10;18.35;96.81
72126;SHT31;59999;51.676;22.650;2022-08-19T03:41:39;18.37;96.81
72126;SHT31;59999;51.676;22.650;2022-08-19T03:44:05;18.38;96.78
72126;SHT31;59999;51.676;22.650;2022-08-19T03:46:35;18.37;96.82
72126;SHT31;59999;51.676;22.650;2022-08-19T03:49:03;18.42;96.79
72126;SHT31;59999;51.676;22.650;2022-08-19T03:51:37;18.42;96.77
72126;SHT31;59999;51.676;22.650;2022-08-19T03:54:06;18.42;96.66
72126;SHT31;59999;51.676;22.650;2022-08-19T03:56:37;18.45;96.62
72126;SHT31;59999;51.676;22.650;2022-08-19T03:59:04;18.44;96.58
72126;SHT31;59999;51.676;22.650;2022-08-19T04:01:31;18.45;96.58
72126;SHT31;59999;51.676;22.650;2022-08-19T04:03:58;18.47;96.61
72126;SHT31;59999;51.676;22.650;2022-08-19T04:06:30;18.47;96.63
72126;SHT31;59999;51.676;22.650;2022-08-19T04:08:58;18.47;96.64
72126;SHT31;59999;51.676;22.650;2022-08-19T04:11:26;18.49;96.65
72126;SHT31;59999;51.676;22.650;2022-08-19T04:13:53;18.53;96.59
72126;SHT31;59999;51.676;22.650;2022-08-19T04:16:21;18.55;96.62
72126;SHT31;59999;51.676;22.650;2022-08-19T04:18:48;18.62;96.62
72126;SHT31;59999;51.676;22.650;2022-08-19T04:21:20;18.63;96.57
72126;SHT31;59999;51.676;22.650;2022-08-19T04:23:47;18.71;96.53
72126;SHT31;59999;51.676;22.650;2022-08-19T04:26:15;18.72;96.40
72126;SHT31;59999;51.676;22.650;2022-08-19T04:28:42;18.77;96.35
72126;SHT31;59999;51.676;22.650;2022-08-19T04:31:21;18.81;96.32
72126;SHT31;59999;51.676;22.650;2022-08-19T04:33:47;18.88;96.14
72126;SHT31;59999;51.676;22.650;2022-08-19T04:36:22;18.93;95.88
72126;SHT31;59999;51.676;22.650;2022-08-19T04:38:59;18.98;95.78
72126;SHT31;59999;51.676;22.650;2022-08-19T04:41:25;19.06;95.53
72126;SHT31;59999;51.676;22.650;2022-08-19T04:44:10;19.16;95.18
72126;SHT31;59999;51.676;22.650;2022-08-19T04:46:37;19.21;95.12
72126;SHT31;59999;51.676;22.650;2022-08-19T04:49:04;19.31;94.85
72126;SHT31;59999;51.676;22.650;2022-08-19T04:51:32;19.44;94.60
72126;SHT31;59999;51.676;22.650;2022-08-19T04:54:00;19.51;94.53
72126;SHT31;59999;51.676;22.650;2022-08-19T04:56:27;19.65;94.49
72126;SHT31;59999;51.676;22.650;2022-08-19T04:58:55;19.75;94.26
72126;SHT31;59999;51.676;22.650;2022-08-19T05:01:24;19.90;94.24
72126;SHT31;59999;51.676;22.650;2022-08-19T05:03:50;20.02;94.06
72126;SHT31;59999;51.676;22.650;2022-08-19T05:06:18;20.13;93.71
72126;SHT31;59999;51.676;22.650;2022-08-19T05:08:45;20.30;93.28
72126;SHT31;59999;51.676;22.650;2022-08-19T05:11:37;20.44;92.86
72126;SHT31;59999;51.676;22.650;2022-08-19T05:14:06;20.56;92.00
72126;SHT31;59999;51.676;22.650;2022-08-19T05:16:32;20.68;91.74
72126;SHT31;59999;51.676;22.650;2022-08-19T05:18:58;20.84;91.64
72126;SHT31;59999;51.676;22.650;2022-08-19T05:21:43;20.98;91.26
72126;SHT31;59999;51.676;22.650;2022-08-19T05:24:28;21.06;90.34
72126;SHT31;59999;51.676;22.650;2022-08-19T05:26:55;21.19;89.67
72126;SHT31;59999;51.676;22.650;2022-08-19T05:29:27;21.32;89.18
72126;SHT31;59999;51.676;22.650;2022-08-19T05:31:54;21.43;88.64
72126;SHT31;59999;51.676;22.650;2022-08-19T05:34:22;21.50;88.71
72126;SHT31;59999;51.676;22.650;2022-08-19T05:36:51;21.66;87.51
72126;SHT31;59999;51.676;22.650;2022-08-19T05:39:26;21.77;87.34
72126;SHT31;59999;51.676;22.650;2022-08-19T05:41:55;21.89;86.64
72126;SHT31;59999;51.676;22.650;2022-08-19T05:44:28;22.04;85.27
72126;SHT31;59999;51.676;22.650;2022-08-19T05:46:58;22.15;85.23
72126;SHT31;59999;51.676;22.650;2022-08-19T05:49:26;22.24;83.72
72126;SHT31;59999;51.676;22.650;2022-08-19T05:51:53;22.37;83.94
72126;SHT31;59999;51.676;22.650;2022-08-19T05:54:19;22.41;83.83
72126;SHT31;59999;51.676;22.650;2022-08-19T05:56:45;22.51;83.57
72126;SHT31;59999;51.676;22.650;2022-08-19T05:59:15;22.58;83.72
72126;SHT31;59999;51.676;22.650;2022-08-19T06:01:44;22.65;83.76
72126;SHT31;59999;51.676;22.650;2022-08-19T06:04:12;22.75;82.91
72126;SHT31;59999;51.676;22.650;2022-08-19T06:06:42;22.90;83.06
72126;SHT31;59999;51.676;22.650;2022-08-19T06:09:08;23.02;82.44
72126;SHT31;59999;51.676;22.650;2022-08-19T06:11:45;23.11;81.77
72126;SHT31;59999;51.676;22.650;2022-08-19T06:14:17;23.21;81.25
72126;SHT31;59999;51.676;22.650;2022-08-19T06:16:45;23.37;80.94
72126;SHT31;59999;51.676;22.650;2022-08-19T06:19:13;23.51;80.75
72126;SHT31;59999;51.676;22.650;2022-08-19T06:21:42;23.62;79.81
72126;SHT31;59999;51.676;22.650;2022-08-19T06:24:11;23.74;78.92
72126;SHT31;59999;51.676;22.650;2022-08-19T06:26:40;23.86;78.66
72126;SHT31;59999;51.676;22.650;2022-08-19T06:29:09;23.99;77.96
72126;SHT31;59999;51.676;22.650;2022-08-19T06:31:36;24.10;77.75
72126;SHT31;59999;51.676;22.650;2022-08-19T06:34:05;24.20;76.21
72126;SHT31;59999;51.676;22.650;2022-08-19T06:36:37;24.36;76.34
72126;SHT31;59999;51.676;22.650;2022-08-19T06:39:05;24.50;75.88
72126;SHT31;59999;51.676;22.650;2022-08-19T06:41:35;24.64;75.31
72126;SHT31;59999;51.676;22.650;2022-08-19T06:44:02;24.77;74.67
72126;SHT31;59999;51.676;22.650;2022-08-19T06:46:28;24.91;74.05
72126;SHT31;59999;51.676;22.650;2022-08-19T06:48:54;25.07;73.20
72126;SHT31;59999;51.676;22.650;2022-08-19T06:51:21;25.16;71.97
72126;SHT31;59999;51.676;22.650;2022-08-19T06:53:48;25.32;72.33
72126;SHT31;59999;51.676;22.650;2022-08-19T06:56:16;25.40;71.07
72126;SHT31;59999;51.676;22.650;2022-08-19T06:58:43;25.50;71.22
72126;SHT31;59999;51.676;22.650;2022-08-19T07:01:09;25.63;71.17
72126;SHT31;59999;51.676;22.650;2022-08-19T07:03:36;25.73;70.61
72126;SHT31;59999;51.676;22.650;2022-08-19T07:06:05;25.87;69.16
72126;SHT31;59999;51.676;22.650;2022-08-19T07:08:32;26.04;69.17
72126;SHT31;59999;51.676;22.650;2022-08-19T07:10:58;26.15;68.94
72126;SHT31;59999;51.676;22.650;2022-08-19T07:13:24;26.29;68.76
72126;SHT31;59999;51.676;22.650;2022-08-19T07:15:50;26.46;68.06
72126;SHT31;59999;51.676;22.650;2022-08-19T07:18:20;26.57;67.63
72126;SHT31;59999;51.676;22.650;2022-08-19T07:20:47;26.68;66.79
72126;SHT31;59999;51.676;22.650;2022-08-19T07:23:13;26.69;66.09
72126;SHT31;59999;51.676;22.650;2022-08-19T07:25:39;26.78;65.42
72126;SHT31;59999;51.676;22.650;2022-08-19T07:28:05;26.83;65.50
72126;SHT31;59999;51.676;22.650;2022-08-19T07:30:37;26.94;64.97
72126;SHT31;59999;51.676;22.650;2022-08-19T07:33:03;27.07;63.96
72126;SHT31;59999;51.676;22.650;2022-08-19T07:35:28;27.17;63.66
72126;SHT31;59999;51.676;22.650;2022-08-19T07:37:58;27.29;63.65
72126;SHT31;59999;51.676;22.650;2022-08-19T07:40:24;27.41;62.33
72126;SHT31;59999;51.676;22.650;2022-08-19T07:42:50;27.57;62.63
72126;SHT31;59999;51.676;22.650;2022-08-19T07:45:16;27.75;61.39
72126;SHT31;59999;51.676;22.650;2022-08-19T07:47:42;27.95;61.62
72126;SHT31;59999;51.676;22.650;2022-08-19T07:50:10;28.13;60.66
72126;SHT31;59999;51.676;22.650;2022-08-19T07:52:37;28.30;58.78
72126;SHT31;59999;51.676;22.650;2022-08-19T07:55:09;28.40;58.16
72126;SHT31;59999;51.676;22.650;2022-08-19T07:57:35;28.56;57.39
72126;SHT31;59999;51.676;22.650;2022-08-19T08:00:03;28.64;55.79
72126;SHT31;59999;51.676;22.650;2022-08-19T08:02:30;28.71;55.47
72126;SHT31;59999;51.676;22.650;2022-08-19T08:04:55;28.69;54.89
72126;SHT31;59999;51.676;22.650;2022-08-19T08:07:40;28.75;55.34
72126;SHT31;59999;51.676;22.650;2022-08-19T08:10:25;28.81;55.22
72126;SHT31;59999;51.676;22.650;2022-08-19T08:12:51;28.84;56.00
72126;SHT31;59999;51.676;22.650;2022-08-19T08:15:17;28.90;55.64
72126;SHT31;59999;51.676;22.650;2022-08-19T08:17:44;28.84;56.11
72126;SHT31;59999;51.676;22.650;2022-08-19T08:20:12;28.87;55.38
72126;SHT31;59999;51.676;22.650;2022-08-19T08:22:43;28.88;55.23
72126;SHT31;59999;51.676;22.650;2022-08-19T08:25:28;28.94;55.57
72126;SHT31;59999;51.676;22.650;2022-08-19T08:27:55;29.01;54.75
72126;SHT31;59999;51.676;22.650;2022-08-19T08:30:24;29.06;53.52
72126;SHT31;59999;51.676;22.650;2022-08-19T08:32:51;29.12;54.03
72126;SHT31;59999;51.676;22.650;2022-08-19T08:35:20;29.20;52.17
72126;SHT31;59999;51.676;22.650;2022-08-19T08:37:47;29.26;53.09
72126;SHT31;59999;51.676;22.650;2022-08-19T08:40:28;29.35;52.89
72126;SHT31;59999;51.676;22.650;2022-08-19T08:43:06;29.40;52.17
72126;SHT31;59999;51.676;22.650;2022-08-19T08:45:46;29.49;50.44
72126;SHT31;59999;51.676;22.650;2022-08-19T08:48:20;29.57;51.17
72126;SHT31;59999;51.676;22.650;2022-08-19T08:50:51;29.62;50.46
72126;SHT31;59999;51.676;22.650;2022-08-19T08:53:20;29.64;49.70
72126;SHT31;59999;51.676;22.650;2022-08-19T08:55:46;29.70;52.23
72126;SHT31;59999;51.676;22.650;2022-08-19T08:58:19;29.70;50.70
72126;SHT31;59999;51.676;22.650;2022-08-19T09:00:48;29.76;50.66
72126;SHT31;59999;51.676;22.650;2022-08-19T09:03:23;29.84;50.26
72126;SHT31;59999;51.676;22.650;2022-08-19T09:06:01;29.96;50.99
72126;SHT31;59999;51.676;22.650;2022-08-19T09:11:47;30.07;50.00
72126;SHT31;59999;51.676;22.650;2022-08-19T09:14:37;30.08;48.38
72126;SHT31;59999;51.676;22.650;2022-08-19T09:17:08;30.05;49.17
72126;SHT31;59999;51.676;22.650;2022-08-19T09:19:46;30.11;50.21
72126;SHT31;59999;51.676;22.650;2022-08-19T09:22:13;30.12;49.10
72126;SHT31;59999;51.676;22.650;2022-08-19T09:24:40;30.12;48.43
72126;SHT31;59999;51.676;22.650;2022-08-19T09:27:06;30.14;48.18
72126;SHT31;59999;51.676;22.650;2022-08-19T09:29:32;30.24;46.72
72126;SHT31;59999;51.676;22.650;2022-08-19T09:31:58;30.22;47.06
72126;SHT31;59999;51.676;22.650;2022-08-19T09:34:24;30.25;47.07
72126;SHT31;59999;51.676;22.650;2022-08-19T09:36:50;30.24;45.91
72126;SHT31;59999;51.676;22.650;2022-08-19T09:39:19;30.25;47.62
72126;SHT31;59999;51.676;22.650;2022-08-19T09:41:44;30.29;46.09
72126;SHT31;59999;51.676;22.650;2022-08-19T09:44:10;30.27;46.23
72126;SHT31;59999;51.676;22.650;2022-08-19T09:46:38;30.18;45.48
72126;SHT31;59999;51.676;22.650;2022-08-19T09:49:04;30.08;46.18
72126;SHT31;59999;51.676;22.650;2022-08-19T09:51:32;30.10;47.53
72126;SHT31;59999;51.676;22.650;2022-08-19T09:54:00;30.05;46.03
72126;SHT31;59999;51.676;22.650;2022-08-19T09:56:28;30.10;46.89
72126;SHT31;59999;51.676;22.650;2022-08-19T09:58:58;30.18;48.03
72126;SHT31;59999;51.676;22.650;2022-08-19T10:01:27;30.38;48.12
72126;SHT31;59999;51.676;22.650;2022-08-19T10:03:54;30.55;47.54
72126;SHT31;59999;51.676;22.650;2022-08-19T10:06:22;30.70;45.16
72126;SHT31;59999;51.676;22.650;2022-08-19T10:08:50;30.86;44.82
72126;SHT31;59999;51.676;22.650;2022-08-19T10:11:18;30.98;43.28
72126;SHT31;59999;51.676;22.650;2022-08-19T10:13:45;31.00;41.96
72126;SHT31;59999;51.676;22.650;2022-08-19T10:16:15;31.04;42.74
72126;SHT31;59999;51.676;22.650;2022-08-19T10:18:42;31.10;42.96
72126;SHT31;59999;51.676;22.650;2022-08-19T10:21:12;31.13;42.79
72126;SHT31;59999;51.676;22.650;2022-08-19T10:23:42;31.11;40.46
72126;SHT31;59999;51.676;22.650;2022-08-19T10:26:13;31.14;41.91
72126;SHT31;59999;51.676;22.650;2022-08-19T10:28:40;31.16;42.44
72126;SHT31;59999;51.676;22.650;2022-08-19T10:31:16;31.21;43.21
72126;SHT31;59999;51.676;22.650;2022-08-19T10:33:43;31.21;43.21
72126;SHT31;59999;51.676;22.650;2022-08-19T10:36:16;31.28;45.06
72126;SHT31;59999;51.676;22.650;2022-08-19T10:38:44;31.26;42.84
72126;SHT31;59999;51.676;22.650;2022-08-19T10:41:13;31.21;43.35
72126;SHT31;59999;51.676;22.650;2022-08-19T10:43:41;31.14;43.02
72126;SHT31;59999;51.676;22.650;2022-08-19T10:46:12;31.04;43.59
72126;SHT31;59999;51.676;22.650;2022-08-19T10:48:39;31.01;44.64
72126;SHT31;59999;51.676;22.650;2022-08-19T10:51:06;30.97;41.20
72126;SHT31;59999;51.676;22.650;2022-08-19T10:53:51;31.01;43.80
72126;SHT31;59999;51.676;22.650;2022-08-19T10:56:18;31.11;44.14
72126;SHT31;59999;51.676;22.650;2022-08-19T10:59:03;31.17;41.86
72126;SHT31;59999;51.676;22.650;2022-08-19T11:01:31;31.21;44.12
72126;SHT31;59999;51.676;22.650;2022-08-19T11:04:03;31.24;42.62
72126;SHT31;59999;51.676;22.650;2022-08-19T11:06:33;31.24;41.74
72126;SHT31;59999;51.676;22.650;2022-08-19T11:08:59;31.21;41.33
72126;SHT31;59999;51.676;22.650;2022-08-19T11:11:26;31.18;41.93
72126;SHT31;59999;51.676;22.650;2022-08-19T11:13:52;31.14;41.70
72126;SHT31;59999;51.676;22.650;2022-08-19T11:16:21;31.14;42.27
72126;SHT31;59999;51.676;22.650;2022-08-19T11:18:50;31.16;42.36
72126;SHT31;59999;51.676;22.650;2022-08-19T11:21:28;31.14;43.30
72126;SHT31;59999;51.676;22.650;2022-08-19T11:24:00;31.16;42.53
72126;SHT31;59999;51.676;22.650;2022-08-19T11:26:28;31.20;43.75
72126;SHT31;59999;51.676;22.650;2022-08-19T11:28:56;31.26;42.35
72126;SHT31;59999;51.676;22.650;2022-08-19T11:31:25;31.26;42.45
72126;SHT31;59999;51.676;22.650;2022-08-19T11:33:51;31.23;41.83
72126;SHT31;59999;51.676;22.650;2022-08-19T11:36:21;31.18;43.06
72126;SHT31;59999;51.676;22.650;2022-08-19T11:38:48;31.18;42.62
72126;SHT31;59999;51.676;22.650;2022-08-19T11:41:17;31.20;42.47
72126;SHT31;59999;51.676;22.650;2022-08-19T11:43:43;31.20;42.20
72126;SHT31;59999;51.676;22.650;2022-08-19T11:46:12;31.20;42.38
72126;SHT31;59999;51.676;22.650;2022-08-19T11:48:39;31.18;42.35
72126;SHT31;59999;51.676;22.650;2022-08-19T11:51:09;31.23;44.34
72126;SHT31;59999;51.676;22.650;2022-08-19T11:53:36;31.27;44.15
72126;SHT31;59999;51.676;22.650;2022-08-19T11:56:03;31.28;41.66
72126;SHT31;59999;51.676;22.650;2022-08-19T11:58:29;31.31;41.97
72126;SHT31;59999;51.676;22.650;2022-08-19T12:01:05;31.34;42.53
72126;SHT31;59999;51.676;22.650;2022-08-19T12:03:32;31.35;42.88
72126;SHT31;59999;51.676;22.650;2022-08-19T12:06:06;31.38;42.40
72126;SHT31;59999;51.676;22.650;2022-08-19T12:08:32;31.35;42.13
72126;SHT31;59999;51.676;22.650;2022-08-19T12:10:58;31.37;42.98
72126;SHT31;59999;51.676;22.650;2022-08-19T12:13:28;31.31;41.85
72126;SHT31;59999;51.676;22.650;2022-08-19T12:15:55;31.30;42.16
72126;SHT31;59999;51.676;22.650;2022-08-19T12:18:22;31.33;42.81
72126;SHT31;59999;51.676;22.650;2022-08-19T12:20:50;31.35;41.83
72126;SHT31;59999;51.676;22.650;2022-08-19T12:23:17;31.39;42.52
72126;SHT31;59999;51.676;22.650;2022-08-19T12:25:45;31.47;43.11
72126;SHT31;59999;51.676;22.650;2022-08-19T12:28:19;31.54;43.80
72126;SHT31;59999;51.676;22.650;2022-08-19T12:30:46;31.59;42.98
72126;SHT31;59999;51.676;22.650;2022-08-19T12:33:12;31.59;43.59
72126;SHT31;59999;51.676;22.650;2022-08-19T12:35:43;31.51;42.35
72126;SHT31;59999;51.676;22.650;2022-08-19T12:38:10;31.34;41.56
72126;SHT31;59999;51.676;22.650;2022-08-19T12:40:38;31.31;42.68
72126;SHT31;59999;51.676;22.650;2022-08-19T12:43:06;31.24;43.66
72126;SHT31;59999;51.676;22.650;2022-08-19T12:45:33;31.20;44.38
72126;SHT31;59999;51.676;22.650;2022-08-19T12:47:59;31.16;43.17
72126;SHT31;59999;51.676;22.650;2022-08-19T12:50:25;31.14;43.41
72126;SHT31;59999;51.676;22.650;2022-08-19T12:52:51;31.14;42.92
72126;SHT31;59999;51.676;22.650;2022-08-19T12:55:17;31.18;42.83
72126;SHT31;59999;51.676;22.650;2022-08-19T12:57:45;31.23;43.66
72126;SHT31;59999;51.676;22.650;2022-08-19T13:00:14;31.27;42.80
72126;SHT31;59999;51.676;22.650;2022-08-19T13:02:42;31.30;43.34
72126;SHT31;59999;51.676;22.650;2022-08-19T13:05:14;31.27;42.03
72126;SHT31;59999;51.676;22.650;2022-08-19T13:07:41;31.31;42.67
72126;SHT31;59999;51.676;22.650;2022-08-19T13:10:12;31.41;43.44
72126;SHT31;59999;51.676;22.650;2022-08-19T13:12:39;31.41;44.14
72126;SHT31;59999;51.676;22.650;2022-08-19T13:15:07;31.42;43.48
72126;SHT31;59999;51.676;22.650;2022-08-19T13:17:34;31.39;43.22
72126;SHT31;59999;51.676;22.650;2022-08-19T13:20:01;31.37;43.49
72126;SHT31;59999;51.676;22.650;2022-08-19T13:22:27;31.34;44.19
72126;SHT31;59999;51.676;22.650;2022-08-19T13:24:53;31.34;43.17
72126;SHT31;59999;51.676;22.650;2022-08-19T13:27:19;31.38;42.79
72126;SHT31;59999;51.676;22.650;2022-08-19T13:29:45;31.37;43.90
72126;SHT31;59999;51.676;22.650;2022-08-19T13:32:30;31.35;43.68
72126;SHT31;59999;51.676;22.650;2022-08-19T13:35:14;31.27;45.12
72126;SHT31;59999;51.676;22.650;2022-08-19T13:37:41;31.30;44.98
72126;SHT31;59999;51.676;22.650;2022-08-19T13:40:18;31.30;45.82
72126;SHT31;59999;51.676;22.650;2022-08-19T13:42:47;31.33;44.85
72126;SHT31;59999;51.676;22.650;2022-08-19T13:45:15;31.27;45.06
72126;SHT31;59999;51.676;22.650;2022-08-19T13:47:41;31.21;45.00
72126;SHT31;59999;51.676;22.650;2022-08-19T13:50:11;31.21;45.09
72126;SHT31;59999;51.676;22.650;2022-08-19T13:52:38;31.21;44.94
72126;SHT31;59999;51.676;22.650;2022-08-19T13:55:06;31.14;45.32
72126;SHT31;59999;51.676;22.650;2022-08-19T13:57:33;31.17;45.12
72126;SHT31;59999;51.676;22.650;2022-08-19T13:59:59;31.13;44.15
72126;SHT31;59999;51.676;22.650;2022-08-19T14:02:25;31.10;44.95
72126;SHT31;59999;51.676;22.650;2022-08-19T14:04:52;31.13;44.81
72126;SHT31;59999;51.676;22.650;2022-08-19T14:07:18;31.20;45.78
72126;SHT31;59999;51.676;22.650;2022-08-19T14:09:44;31.30;46.56
72126;SHT31;59999;51.676;22.650;2022-08-19T14:12:10;31.30;43.88
72126;SHT31;59999;51.676;22.650;2022-08-19T14:14:37;31.30;44.30
72126;SHT31;59999;51.676;22.650;2022-08-19T14:17:07;31.39;43.75
72126;SHT31;59999;51.676;22.650;2022-08-19T14:19:34;31.55;43.34
72126;SHT31;59999;51.676;22.650;2022-08-19T14:21:59;31.74;43.36
72126;SHT31;59999;51.676;22.650;2022-08-19T14:24:25;31.99;42.34
72126;SHT31;59999;51.676;22.650;2022-08-19T14:26:51;32.30;41.61
72126;SHT31;59999;51.676;22.650;2022-08-19T14:29:17;32.50;41.15
72126;SHT31;59999;51.676;22.650;2022-08-19T14:31:43;32.60;40.38
72126;SHT31;59999;51.676;22.650;2022-08-19T14:34:09;32.77;41.18
72126;SHT31;59999;51.676;22.650;2022-08-19T14:36:36;32.87;41.12
72126;SHT31;59999;51.676;22.650;2022-08-19T14:39:03;32.95;41.44
72126;SHT31;59999;51.676;22.650;2022-08-19T14:41:30;33.08;39.17
72126;SHT31;59999;51.676;22.650;2022-08-19T14:43:56;33.05;38.98
72126;SHT31;59999;51.676;22.650;2022-08-19T14:46:24;33.19;39.52
72126;SHT31;59999;51.676;22.650;2022-08-19T14:48:52;33.19;39.14
72126;SHT31;59999;51.676;22.650;2022-08-19T14:51:23;33.18;39.14
72126;SHT31;59999;51.676;22.650;2022-08-19T14:53:50;33.21;38.70
72126;SHT31;59999;51.676;22.650;2022-08-19T14:56:19;33.28;38.15
72126;SHT31;59999;51.676;22.650;2022-08-19T14:58:45;33.28;38.67
72126;SHT31;59999;51.676;22.650;2022-08-19T15:01:12;33.36;37.91
72126;SHT31;59999;51.676;22.650;2022-08-19T15:03:39;33.36;38.42
72126;SHT31;59999;51.676;22.650;2022-08-19T15:06:09;33.39;38.11
72126;SHT31;59999;51.676;22.650;2022-08-19T15:08:36;33.35;38.83
72126;SHT31;59999;51.676;22.650;2022-08-19T15:11:09;33.43;38.75
72126;SHT31;59999;51.676;22.650;2022-08-19T15:13:35;33.62;38.86
72126;SHT31;59999;51.676;22.650;2022-08-19T15:16:02;33.84;38.46
72126;SHT31;59999;51.676;22.650;2022-08-19T15:18:28;33.83;37.90
72126;SHT31;59999;51.676;22.650;2022-08-19T15:20:54;33.72;37.46
72126;SHT31;59999;51.676;22.650;2022-08-19T15:23:20;33.76;38.17
72126;SHT31;59999;51.676;22.650;2022-08-19T15:25:47;33.89;37.69
72126;SHT31;59999;51.676;22.650;2022-08-19T15:28:13;33.87;37.24